Time;durP1;ratioP1;P1;durP2;ratioP2;P2;SDS_P1;SDS_P2;PMS_P1;PMS_P2;Temp;Humidity;BMP_temperature;BMP_pressure;BME280_temperature;BME280_humidity;BME280_pressure;Samples;Min_cycle;Max_cycle;Signal;HPM_P1;HPM_P2
2022/10/03 00:00:29;;;;;;;3.65;1.30;;;21.40;48.60;;;;;;5044159;28;20041;-49
2022/10/03 00:03:14;;;;;;;2.88;1.20;;;21.30;48.60;;;;;;5054507;28;20057;-50
2022/10/03 00:06:01;;;;;;;3.60;1.40;;;21.30;48.60;;;;;;5054247;28;20037;-50
2022/10/03 00:08:36;;;;;;;2.03;0.98;;;21.30;48.60;;;;;;5049342;28;20041;-54
2022/10/03 00:11:38;;;;;;;4.28;1.35;;;21.30;48.60;;;;;;5035535;28;20559;-52
2022/10/03 00:14:22;;;;;;;2.08;1.05;;;21.30;48.60;;;;;;5053974;28;20037;-50
2022/10/03 00:16:54;;;;;;;3.50;1.35;;;21.30;48.60;;;;;;5058125;28;20373;-53
2022/10/03 00:19:35;;;;;;;5.30;1.63;;;21.30;48.60;;;;;;5056375;28;20506;-52
2022/10/03 00:22:42;;;;;;;3.67;1.05;;;21.30;48.60;;;;;;5056408;28;20036;-48
2022/10/03 00:25:36;;;;;;;3.15;1.15;;;21.30;48.60;;;;;;5040535;28;20041;-51
2022/10/03 00:28:35;;;;;;;2.03;1.02;;;21.30;48.60;;;;;;5018398;28;20045;-52
2022/10/03 00:31:13;;;;;;;2.35;1.10;;;21.30;48.60;;;;;;5044242;28;20073;-55
2022/10/03 00:34:15;;;;;;;3.38;1.13;;;21.30;48.70;;;;;;5038068;28;20033;-55
2022/10/03 00:37:18;;;;;;;3.22;1.13;;;21.30;48.70;;;;;;5050522;28;20036;-54
2022/10/03 00:40:15;;;;;;;3.60;1.05;;;21.30;48.70;;;;;;5057780;28;20025;-57
2022/10/03 00:42:50;;;;;;;3.08;0.95;;;21.30;48.70;;;;;;5057896;28;20021;-55
2022/10/03 00:45:40;;;;;;;4.05;1.27;;;21.30;48.70;;;;;;5053600;28;20032;-56
2022/10/03 00:48:15;;;;;;;3.53;1.40;;;21.30;48.70;;;;;;5037712;28;20057;-53
2022/10/03 00:50:41;;;;;;;2.38;1.05;;;21.20;48.70;;;;;;5046355;28;20356;-54
2022/10/03 00:53:15;;;;;;;3.38;1.40;;;21.20;48.70;;;;;;5072286;28;20037;-53
2022/10/03 00:55:58;;;;;;;2.90;1.08;;;21.20;48.70;;;;;;5017587;28;20042;-54
2022/10/03 00:58:25;;;;;;;4.15;1.20;;;21.20;48.70;;;;;;5016521;28;20033;-54
2022/10/03 01:00:56;;;;;;;3.42;1.48;;;21.20;48.70;;;;;;5029965;28;20038;-52
2022/10/03 01:03:42;;;;;;;4.63;1.40;;;21.20;48.70;;;;;;5037337;28;20041;-52
2022/10/03 01:06:28;;;;;;;2.65;1.17;;;21.30;48.80;;;;;;5036194;28;20041;-52
2022/10/03 01:09:25;;;;;;;4.47;1.20;;;21.20;48.70;;;;;;5043157;28;20118;-49
2022/10/03 01:12:00;;;;;;;4.00;1.33;;;21.20;48.80;;;;;;5039533;28;20457;-51
2022/10/03 01:14:52;;;;;;;4.57;1.25;;;21.20;48.70;;;;;;5036337;28;20465;-49
2022/10/03 01:17:56;;;;;;;2.40;1.20;;;21.20;48.70;;;;;;5037471;28;20041;-52
2022/10/03 01:21:06;;;;;;;3.38;1.13;;;21.20;48.70;;;;;;5038682;28;20037;-52
2022/10/03 01:23:56;;;;;;;3.70;1.38;;;21.20;48.70;;;;;;5043082;28;20061;-53
2022/10/03 01:26:50;;;;;;;2.20;0.93;;;21.20;48.70;;;;;;5036801;28;20416;-49
2022/10/03 01:32:35;;;;;;;3.13;1.15;;;21.20;48.70;;;;;;5017300;28;20034;-54
2022/10/03 01:35:10;;;;;;;3.47;1.17;;;21.20;48.70;;;;;;5051859;28;20029;-52
2022/10/03 01:38:12;;;;;;;3.83;1.27;;;21.10;48.70;;;;;;5057039;28;20451;-52
2022/10/03 01:40:42;;;;;;;3.17;1.60;;;21.20;48.70;;;;;;5023106;28;20485;-55
2022/10/03 01:43:12;;;;;;;3.70;1.30;;;21.10;48.60;;;;;;5025624;28;20032;-52
2022/10/03 01:46:04;;;;;;;2.83;1.02;;;21.10;48.60;;;;;;5016177;28;20369;-54
2022/10/03 01:48:52;;;;;;;2.75;1.00;;;21.10;48.70;;;;;;5034770;28;20052;-54
2022/10/03 01:51:26;;;;;;;3.95;0.98;;;21.10;48.60;;;;;;5056048;28;20517;-49
2022/10/03 01:53:57;;;;;;;3.13;1.17;;;21.10;48.60;;;;;;5045905;28;20050;-48
2022/10/03 01:57:07;;;;;;;2.97;1.10;;;21.10;48.60;;;;;;5036223;28;20041;-54
2022/10/03 01:59:56;;;;;;;3.05;1.00;;;21.10;48.60;;;;;;5033618;28;20041;-49
2022/10/03 02:02:35;;;;;;;3.10;1.38;;;21.10;48.60;;;;;;5033434;28;20131;-53
2022/10/03 02:05:23;;;;;;;3.05;1.20;;;21.10;48.60;;;;;;5035553;28;20045;-51
2022/10/03 02:08:17;;;;;;;2.47;1.23;;;21.10;48.60;;;;;;5030191;28;20481;-54
2022/10/03 02:10:45;;;;;;;3.22;1.20;;;21.10;48.60;;;;;;5024919;28;20060;-52
2022/10/03 02:13:29;;;;;;;3.30;1.25;;;21.10;48.60;;;;;;5034933;28;20365;-50
2022/10/03 02:16:15;;;;;;;3.13;1.33;;;21.10;48.60;;;;;;5036524;28;20021;-51
2022/10/03 02:18:50;;;;;;;2.55;1.10;;;21.10;48.60;;;;;;5051381;28;20040;-49
2022/10/03 02:21:30;;;;;;;2.85;1.40;;;21.10;48.60;;;;;;5016558;28;20041;-52
2022/10/03 02:24:14;;;;;;;3.67;0.95;;;21.10;48.60;;;;;;5051648;28;20511;-52
2022/10/03 02:27:14;;;;;;;3.45;1.20;;;21.10;48.60;;;;;;5035589;28;20449;-50
2022/10/03 02:29:58;;;;;;;3.33;1.00;;;21.10;48.60;;;;;;5035771;28;20043;-48
2022/10/03 02:32:55;;;;;;;1.85;0.90;;;21.10;48.60;;;;;;5015268;28;20029;-53
2022/10/03 02:35:50;;;;;;;3.08;1.05;;;21.10;48.60;;;;;;5034342;28;20075;-48
2022/10/03 02:38:30;;;;;;;2.47;1.00;;;21.00;48.60;;;;;;5017095;28;20357;-56
2022/10/03 02:41:12;;;;;;;4.30;1.27;;;21.00;48.60;;;;;;5035024;28;20056;-53
2022/10/03 02:44:06;;;;;;;2.50;0.98;;;21.00;48.60;;;;;;5016179;28;20037;-55
2022/10/03 02:46:53;;;;;;;3.03;1.02;;;21.00;48.60;;;;;;5015306;28;20384;-56
2022/10/03 02:49:40;;;;;;;2.50;0.98;;;21.00;48.60;;;;;;5026126;28;20368;-54
2022/10/03 02:52:34;;;;;;;2.83;1.10;;;21.00;48.60;;;;;;5034754;28;20025;-53
2022/10/03 02:55:09;;;;;;;3.05;1.10;;;21.00;48.60;;;;;;5035117;28;20033;-50
2022/10/03 02:58:04;;;;;;;2.95;1.08;;;21.00;48.60;;;;;;5034961;28;20448;-53
2022/10/03 03:01:07;;;;;;;2.15;1.10;;;21.00;48.60;;;;;;5036759;28;20461;-52
2022/10/03 03:03:54;;;;;;;2.00;1.02;;;21.00;48.50;;;;;;5039132;28;20441;-47
2022/10/03 03:06:51;;;;;;;3.50;1.40;;;20.90;48.50;;;;;;5035547;28;20044;-51
2022/10/03 03:09:54;;;;;;;2.08;1.00;;;20.90;48.50;;;;;;5047945;28;20452;-52
2022/10/03 03:12:49;;;;;;;2.53;1.00;;;20.90;48.50;;;;;;5016153;28;20052;-52
2022/10/03 03:15:43;;;;;;;2.60;0.90;;;20.90;48.50;;;;;;5035373;28;20383;-51
2022/10/03 03:18:47;;;;;;;3.42;1.00;;;20.90;48.50;;;;;;5039061;28;20535;-55
2022/10/03 03:21:28;;;;;;;1.90;0.75;;;20.90;48.50;;;;;;5026911;28;20473;-52
2022/10/03 03:24:19;;;;;;;3.88;1.17;;;20.90;48.40;;;;;;5017931;28;20040;-54
2022/10/03 03:27:00;;;;;;;2.65;0.70;;;20.90;48.40;;;;;;5051699;28;20068;-52
2022/10/03 03:29:34;;;;;;;3.20;1.30;;;20.90;48.40;;;;;;5037165;28;20358;-50
2022/10/03 03:32:02;;;;;;;;;;;20.90;48.30;;;;;;5033585;28;20017;-55
2022/10/03 03:35:03;;;;;;;2.15;0.80;;;20.90;48.30;;;;;;5047704;28;19919;-48
2022/10/03 03:38:08;;;;;;;4.07;1.10;;;20.90;48.80;;;;;;5052727;28;20048;-55
2022/10/03 03:40:57;;;;;;;2.55;1.10;;;20.90;48.20;;;;;;5053103;28;20147;-50
2022/10/03 03:43:39;;;;;;;3.40;1.20;;;20.90;48.20;;;;;;5049994;28;20034;-49
2022/10/03 03:46:14;;;;;;;4.68;1.50;;;21.00;48.20;;;;;;5038646;28;20033;-47
2022/10/03 03:49:00;;;;;;;2.38;1.05;;;20.90;48.10;;;;;;5038597;28;20112;-57
2022/10/03 03:51:48;;;;;;;3.50;1.13;;;20.90;48.10;;;;;;5037887;28;20033;-48
2022/10/03 03:54:56;;;;;;;3.13;1.10;;;21.00;48.10;;;;;;5037540;28;20033;-52
2022/10/03 03:57:38;;;;;;;3.35;1.08;;;21.00;48.10;;;;;;5038390;28;20029;-53
2022/10/03 04:00:20;;;;;;;2.17;0.82;;;20.90;48.00;;;;;;5038360;28;20030;-51
2022/10/03 04:02:49;;;;;;;4.15;1.00;;;21.00;48.10;;;;;;5038474;28;20033;-53
2022/10/03 04:05:45;;;;;;;3.80;1.15;;;20.90;48.00;;;;;;5038140;28;20033;-51
2022/10/03 04:08:30;;;;;;;3.22;1.25;;;21.00;48.00;;;;;;5040173;28;20076;-50
2022/10/03 04:11:01;;;;;;;3.05;1.25;;;20.90;47.90;;;;;;5048122;28;20053;-51
2022/10/03 04:13:36;;;;;;;2.17;0.90;;;21.00;47.90;;;;;;5038222;28;20068;-51
2022/10/03 04:16:05;;;;;;;2.03;0.82;;;21.00;47.90;;;;;;5038010;28;20037;-50
2022/10/03 04:18:58;;;;;;;2.15;0.93;;;21.00;47.90;;;;;;5041893;28;20017;-52
2022/10/03 04:21:39;;;;;;;4.03;1.05;;;21.00;47.90;;;;;;5058182;28;20028;-53
2022/10/03 04:24:42;;;;;;;2.13;0.90;;;21.00;47.80;;;;;;5050849;28;20087;-52
2022/10/03 04:27:36;;;;;;;2.20;1.00;;;21.00;47.80;;;;;;5037818;28;20033;-52
2022/10/03 04:30:16;;;;;;;2.92;1.25;;;21.00;47.80;;;;;;5036375;28;20041;-54
2022/10/03 04:33:05;;;;;;;2.53;1.05;;;21.00;47.70;;;;;;5037360;28;20037;-52
2022/10/03 04:36:12;;;;;;;2.35;0.90;;;21.00;47.70;;;;;;5037762;28;20041;-51
2022/10/03 04:38:58;;;;;;;2.13;0.80;;;21.00;47.70;;;;;;5049296;28;20514;-51
2022/10/03 04:41:48;;;;;;;3.72;1.08;;;21.00;47.60;;;;;;5057688;28;20120;-51
2022/10/03 04:44:55;;;;;;;2.05;0.60;;;21.00;47.60;;;;;;5041946;28;20099;-55
2022/10/03 04:47:29;;;;;;;2.22;1.10;;;21.00;47.60;;;;;;5015342;28;20044;-56
2022/10/03 04:50:11;;;;;;;2.95;0.90;;;21.00;47.60;;;;;;5023256;28;20033;-54
2022/10/03 04:53:14;;;;;;;1.88;0.82;;;21.00;47.50;;;;;;5050287;28;20052;-53
2022/10/03 04:55:46;;;;;;;2.95;1.02;;;21.00;47.50;;;;;;5037756;28;20132;-53
2022/10/03 04:58:49;;;;;;;2.10;0.90;;;21.00;47.50;;;;;;5055894;28;20029;-53
2022/10/03 05:01:21;;;;;;;2.72;1.13;;;21.00;47.50;;;;;;5057296;28;20025;-52
2022/10/03 05:04:05;;;;;;;1.63;0.88;;;21.00;47.50;;;;;;5048595;28;20064;-51
2022/10/03 05:07:00;;;;;;;1.38;0.75;;;21.00;47.50;;;;;;5037026;28;20112;-52
2022/10/03 05:09:34;;;;;;;1.30;0.73;;;21.00;47.40;;;;;;5031332;28;20139;-52
2022/10/03 05:12:19;;;;;;;1.98;0.90;;;21.00;47.40;;;;;;5037388;28;20041;-53
2022/10/03 05:15:18;;;;;;;1.98;0.90;;;21.00;47.40;;;;;;5052279;28;20028;-52
2022/10/03 05:18:05;;;;;;;1.65;0.80;;;21.00;47.30;;;;;;5051922;28;21696;-50
2022/10/03 05:20:54;;;;;;;4.53;1.02;;;21.00;47.30;;;;;;5017104;28;20049;-50
2022/10/03 05:24:01;;;;;;;2.75;1.05;;;21.00;47.30;;;;;;5010101;28;20041;-52
2022/10/03 05:26:50;;;;;;;3.08;0.73;;;21.00;47.30;;;;;;5042648;28;20091;-53
2022/10/03 05:29:37;;;;;;;2.42;0.93;;;21.00;47.30;;;;;;5039610;28;20037;-52
2022/10/03 05:32:31;;;;;;;1.38;0.80;;;21.00;47.20;;;;;;5036166;28;20116;-50
2022/10/03 05:35:27;;;;;;;2.33;0.90;;;21.00;47.90;;;;;;5037657;28;20070;-55
2022/10/03 05:38:15;;;;;;;2.40;1.00;;;20.90;47.20;;;;;;5036118;28;20045;-50
2022/10/03 05:41:01;;;;;;;2.08;0.80;;;20.90;47.20;;;;;;5037099;28;20449;-53
2022/10/03 05:43:57;;;;;;;1.83;0.80;;;21.00;47.20;;;;;;5030464;28;20405;-51
2022/10/03 05:46:59;;;;;;;2.92;1.15;;;20.90;47.20;;;;;;5050440;28;20029;-49
2022/10/03 05:50:00;;;;;;;2.10;0.98;;;20.90;47.10;;;;;;5035936;28;20037;-52
2022/10/03 05:52:52;;;;;;;2.28;1.02;;;20.90;47.10;;;;;;5041452;28;20091;-52
2022/10/03 05:55:29;;;;;;;4.05;1.10;;;20.90;47.10;;;;;;5054945;28;20033;-53
2022/10/03 05:58:37;;;;;;;2.75;1.02;;;20.90;47.10;;;;;;5054052;28;20033;-52
2022/10/03 06:01:40;;;;;;;2.47;0.90;;;20.90;47.10;;;;;;5035961;28;20112;-55
2022/10/03 06:04:33;;;;;;;4.05;1.23;;;20.90;47.10;;;;;;5039453;28;20523;-55
2022/10/03 06:07:20;;;;;;;3.28;1.00;;;20.90;47.10;;;;;;5054557;28;20052;-52
2022/10/03 06:10:26;;;;;;;1.95;1.10;;;21.00;47.10;;;;;;5037502;28;20037;-51
2022/10/03 06:13:03;;;;;;;;;;;20.90;47.10;;;;;;5046581;28;20040;-55
2022/10/03 06:15:38;;;;;;;3.83;1.10;;;20.90;47.10;;;;;;5016507;28;19909;-50
2022/10/03 06:18:41;;;;;;;2.05;0.90;;;20.90;47.10;;;;;;5035686;28;20082;-51
2022/10/03 06:21:35;;;;;;;3.78;1.10;;;20.90;47.20;;;;;;5029592;28;20099;-55
2022/10/03 06:24:22;;;;;;;4.00;1.35;;;20.90;47.20;;;;;;5053400;28;20029;-54
2022/10/03 06:27:13;;;;;;;3.67;1.00;;;20.90;47.10;;;;;;5039667;28;20056;-49
2022/10/03 06:30:24;;;;;;;2.67;1.00;;;20.90;47.10;;;;;;5026048;28;20060;-54
2022/10/03 06:33:11;;;;;;;2.83;1.10;;;20.90;47.20;;;;;;5015455;28;20042;-51
2022/10/03 06:36:00;;;;;;;2.95;1.25;;;20.90;47.20;;;;;;5015807;28;20045;-54
2022/10/03 06:38:51;;;;;;;1.60;0.73;;;20.90;47.20;;;;;;5031894;28;20429;-52
2022/10/03 06:41:51;;;;;;;3.15;1.08;;;21.00;47.40;;;;;;5047420;28;20021;-55
2022/10/03 06:44:40;;;;;;;2.25;0.80;;;20.90;47.30;;;;;;5036504;28;20417;-50
2022/10/03 06:47:34;;;;;;;3.90;1.05;;;21.00;47.40;;;;;;5032318;28;20025;-56
2022/10/03 06:50:32;;;;;;;1.98;0.82;;;20.90;47.30;;;;;;5052013;28;20037;-54
2022/10/03 06:53:17;;;;;;;1.92;0.90;;;20.90;47.40;;;;;;5033006;28;20049;-56
2022/10/03 06:56:09;;;;;;;2.38;1.00;;;20.90;47.30;;;;;;5040052;28;20155;-56
2022/10/03 06:58:41;;;;;;;2.30;1.10;;;21.00;47.40;;;;;;5050615;28;20036;-51
2022/10/03 07:01:44;;;;;;;1.75;0.80;;;21.00;47.40;;;;;;5048181;28;20094;-53
2022/10/03 07:04:18;;;;;;;2.05;0.90;;;21.00;47.50;;;;;;5045832;28;20044;-51
2022/10/03 07:07:13;;;;;;;1.52;0.85;;;21.00;47.60;;;;;;5054921;28;20025;-55
2022/10/03 07:10:08;;;;;;;2.50;1.00;;;21.00;47.70;;;;;;5025631;28;20057;-58
2022/10/03 07:13:18;;;;;;;2.13;0.80;;;21.00;47.80;;;;;;5046934;28;20125;-58
2022/10/03 07:16:08;;;;;;;2.15;0.80;;;21.00;47.80;;;;;;4996019;28;20126;-58
2022/10/03 07:19:07;;;;;;;2.53;0.88;;;21.00;47.90;;;;;;5031903;28;20032;-55
2022/10/03 07:21:58;;;;;;;1.80;0.75;;;21.00;47.90;;;;;;5043817;28;20429;-52
2022/10/03 07:24:51;;;;;;;1.10;0.70;;;21.00;48.00;;;;;;5039021;28;20404;-52
2022/10/03 07:27:41;;;;;;;1.77;1.00;;;21.00;48.10;;;;;;5034465;28;20338;-50
2022/10/03 07:30:13;;;;;;;1.85;0.80;;;21.00;48.10;;;;;;5038201;28;20468;-54
2022/10/03 07:33:02;;;;;;;2.00;1.00;;;21.00;48.10;;;;;;5037015;28;20021;-51
2022/10/03 07:41:30;;;;;;;6.03;1.08;;;21.00;48.30;;;;;;5022147;28;20063;-54
2022/10/03 07:44:27;;;;;;;2.35;1.25;;;21.00;48.30;;;;;;5043569;28;20112;-53
2022/10/03 07:47:20;;;;;;;1.83;0.82;;;21.10;48.40;;;;;;5040565;28;20060;-52
2022/10/03 07:50:17;;;;;;;1.88;1.00;;;21.00;48.40;;;;;;5054537;28;20037;-55
2022/10/03 07:53:07;;;;;;;4.47;1.20;;;21.00;49.10;;;;;;5039827;28;20040;-54
2022/10/03 07:55:45;;;;;;;1.83;1.00;;;21.10;48.60;;;;;;5050350;28;20060;-49
2022/10/03 07:58:25;;;;;;;2.53;1.05;;;21.10;48.60;;;;;;5034555;28;20122;-50
2022/10/03 08:01:13;;;;;;;1.75;1.08;;;21.10;48.60;;;;;;5035265;28;20119;-54
2022/10/03 08:04:11;;;;;;;4.57;1.00;;;21.10;48.60;;;;;;5034189;28;20525;-51
2022/10/03 08:06:37;;;;;;;2.00;0.80;;;21.10;48.70;;;;;;5030501;28;20041;-53
2022/10/03 08:09:38;;;;;;;1.50;0.95;;;21.10;48.90;;;;;;5031584;28;20044;-53
2022/10/03 08:12:19;;;;;;;2.67;1.10;;;21.10;49.00;;;;;;5051387;28;20118;-56
2022/10/03 08:14:50;;;;;;;2.03;0.90;;;21.10;49.00;;;;;;5048578;28;20044;-51
2022/10/03 08:17:48;;;;;;;1.38;0.80;;;21.10;49.00;;;;;;5054458;28;20029;-51
2022/10/03 08:20:26;;;;;;;1.42;0.77;;;21.10;49.10;;;;;;5032747;28;20045;-54
2022/10/03 08:23:23;;;;;;;2.20;0.80;;;21.10;49.10;;;;;;5029844;28;20129;-57
2022/10/03 08:26:26;;;;;;;3.00;1.08;;;21.10;49.10;;;;;;5052274;28;20024;-56
2022/10/03 08:29:13;;;;;;;1.70;0.80;;;21.10;49.10;;;;;;5023447;28;20041;-55
2022/10/03 08:32:07;;;;;;;2.80;1.00;;;21.20;49.30;;;;;;5041720;28;20068;-58
2022/10/03 08:34:42;;;;;;;1.58;0.75;;;21.10;49.30;;;;;;5047782;28;20498;-52
2022/10/03 08:37:20;;;;;;;4.20;0.88;;;21.20;49.40;;;;;;5042003;28;20108;-55
2022/10/03 08:40:24;;;;;;;2.22;0.80;;;21.20;49.40;;;;;;5042067;28;20048;-51
2022/10/03 08:43:10;;;;;;;1.67;0.90;;;21.20;49.40;;;;;;5025648;28;20022;-59
2022/10/03 08:45:56;;;;;;;2.38;0.90;;;21.20;49.40;;;;;;5036893;28;20043;-50
2022/10/03 08:49:07;;;;;;;2.55;1.13;;;21.20;49.40;;;;;;5026013;28;20092;-56
2022/10/03 08:52:06;;;;;;;2.20;1.00;;;21.20;49.40;;;;;;5033648;28;20387;-54
2022/10/03 08:55:04;;;;;;;2.33;0.93;;;21.20;49.50;;;;;;5034018;28;20052;-56
2022/10/03 08:58:03;;;;;;;2.28;0.70;;;21.20;49.50;;;;;;5021098;28;20017;-52
2022/10/03 09:01:10;;;;;;;1.95;0.90;;;21.20;49.60;;;;;;5044667;28;20033;-51
2022/10/03 09:03:43;;;;;;;2.08;0.90;;;21.20;49.70;;;;;;5037957;28;20099;-53
2022/10/03 09:06:38;;;;;;;3.28;1.00;;;21.20;49.70;;;;;;5037400;28;20429;-54
2022/10/03 09:09:44;;;;;;;2.72;1.08;;;21.20;49.70;;;;;;5036526;28;20108;-52
2022/10/03 09:12:33;;;;;;;2.08;0.73;;;21.20;49.80;;;;;;4995526;28;20046;-53
2022/10/03 09:15:11;;;;;;;2.28;0.93;;;21.20;49.80;;;;;;4995479;28;20095;-53
2022/10/03 09:18:12;;;;;;;2.50;0.98;;;21.20;49.80;;;;;;5011156;28;20100;-49
2022/10/03 09:21:17;;;;;;;3.50;0.93;;;21.30;49.90;;;;;;5045528;28;20075;-49
2022/10/03 09:23:55;;;;;;;2.85;1.23;;;21.30;50.00;;;;;;5042381;28;20025;-49
2022/10/03 09:26:40;;;;;;;2.85;0.95;;;21.30;50.00;;;;;;5037160;28;20766;-52
2022/10/03 09:29:08;;;;;;;;;;;21.20;49.90;;;;;;5056485;28;20355;-49
2022/10/03 09:31:56;;;;;;;2.35;0.93;;;21.30;50.00;;;;;;5056486;28;20260;-54
2022/10/03 09:35:05;;;;;;;2.92;0.90;;;21.30;49.90;;;;;;5056530;28;20363;-51
2022/10/03 09:38:07;;;;;;;1.52;0.65;;;21.30;49.80;;;;;;5016780;28;20032;-52
2022/10/03 09:40:55;;;;;;;2.65;1.20;;;21.30;49.80;;;;;;5017160;28;20034;-51
2022/10/03 09:44:09;;;;;;;1.90;0.60;;;21.30;49.70;;;;;;5016097;28;20026;-55
2022/10/03 09:50:00;;;;;;;2.95;0.90;;;21.30;49.60;;;;;;5033812;28;20428;-52
2022/10/03 09:52:51;;;;;;;2.47;0.90;;;21.30;49.60;;;;;;5033198;28;20076;-52
2022/10/03 09:55:46;;;;;;;2.38;0.93;;;21.30;49.60;;;;;;5032604;28;20441;-55
2022/10/03 09:58:57;;;;;;;3.00;0.98;;;21.30;49.60;;;;;;5032440;28;20026;-49
2022/10/03 10:01:37;;;;;;;2.33;1.00;;;21.30;49.50;;;;;;5033828;28;20176;-52
2022/10/03 10:04:21;;;;;;;2.00;0.65;;;21.30;49.50;;;;;;5033875;28;20029;-52
2022/10/03 10:07:13;;;;;;;3.10;0.73;;;21.30;49.40;;;;;;5033241;28;20037;-50
2022/10/03 10:10:06;;;;;;;2.50;0.60;;;21.40;49.40;;;;;;5033201;28;20038;-54
2022/10/03 10:13:00;;;;;;;2.72;0.85;;;21.40;49.30;;;;;;5034147;28;20337;-51
2022/10/03 10:15:43;;;;;;;2.20;1.00;;;21.40;49.30;;;;;;5033059;28;20091;-53
2022/10/03 10:18:18;;;;;;;2.63;0.80;;;21.40;49.40;;;;;;5032826;28;20108;-51
2022/10/03 10:20:53;;;;;;;3.58;0.82;;;21.40;49.40;;;;;;5032310;28;20025;-54
2022/10/03 10:23:48;;;;;;;2.55;1.00;;;21.40;49.50;;;;;;5033197;28;20037;-54
2022/10/03 10:26:39;;;;;;;2.55;0.70;;;21.40;49.40;;;;;;5032844;28;20095;-54
2022/10/03 10:29:11;;;;;;;2.55;0.70;;;21.40;49.40;;;;;;5033857;28;20038;-54
2022/10/03 10:32:03;;;;;;;5.20;0.95;;;21.40;49.30;;;;;;5033797;28;20021;-53
2022/10/03 10:34:47;;;;;;;2.65;0.75;;;21.40;49.30;;;;;;5029943;28;20021;-51
2022/10/03 10:37:35;;;;;;;3.03;0.82;;;21.40;49.30;;;;;;5032182;28;20048;-55
2022/10/03 10:40:25;;;;;;;2.67;0.68;;;21.50;49.30;;;;;;5033242;28;20433;-55
2022/10/03 10:43:16;;;;;;;2.83;0.70;;;21.40;49.90;;;;;;5032764;28;20045;-52
2022/10/03 10:46:10;;;;;;;2.63;0.77;;;21.50;49.20;;;;;;5046718;28;20124;-54
2022/10/03 10:48:51;;;;;;;2.70;1.00;;;21.50;49.20;;;;;;5034868;28;20049;-55
2022/10/03 10:51:44;;;;;;;1.65;0.57;;;21.50;49.20;;;;;;5046470;28;20033;-53
2022/10/03 10:54:45;;;;;;;2.47;0.63;;;21.50;49.20;;;;;;5032039;28;20032;-54
2022/10/03 10:57:14;;;;;;;1.83;0.40;;;21.40;49.10;;;;;;5046298;28;20047;-54
2022/10/03 11:00:14;;;;;;;2.53;0.70;;;21.50;49.20;;;;;;5038881;28;20428;-55
2022/10/03 11:03:08;;;;;;;2.05;0.70;;;21.50;49.20;;;;;;5051862;28;20120;-54
2022/10/03 11:06:16;;;;;;;2.38;0.50;;;21.50;49.20;;;;;;5053464;28;20033;-54
2022/10/03 11:09:22;;;;;;;3.38;1.00;;;21.50;49.30;;;;;;5020296;28;20175;-56
2022/10/03 11:12:10;;;;;;;1.75;0.70;;;21.50;49.70;;;;;;5033298;28;20045;-50
2022/10/03 11:15:04;;;;;;;2.65;0.80;;;21.50;50.00;;;;;;5034219;28;20045;-53
2022/10/03 11:18:10;;;;;;;2.17;0.88;;;21.50;49.90;;;;;;5036281;28;20052;-49
2022/10/03 11:21:14;;;;;;;1.33;0.60;;;21.50;49.90;;;;;;5044272;28;20029;-51
2022/10/03 11:24:41;;;;;;;1.42;0.70;;;21.60;49.80;;;;;;5031388;28;20021;-51
2022/10/03 11:27:22;;;;;;;2.75;0.90;;;21.60;49.60;;;;;;5007631;28;20136;-53
2022/10/03 11:30:07;;;;;;;4.28;1.15;;;21.60;49.50;;;;;;5048657;28;20183;-53
2022/10/03 11:32:55;;;;;;;2.53;0.88;;;21.60;49.40;;;;;;5033140;28;20506;-52
2022/10/03 11:35:27;;;;;;;2.33;0.68;;;21.60;49.30;;;;;;5032967;28;20487;-50
2022/10/03 11:38:23;;;;;;;3.25;0.80;;;21.60;49.20;;;;;;5033216;28;20036;-47
2022/10/03 11:41:07;;;;;;;2.85;0.77;;;21.60;49.10;;;;;;5033117;28;20057;-51
2022/10/03 11:43:44;;;;;;;1.75;0.65;;;21.60;49.00;;;;;;5034194;28;20033;-51
2022/10/03 11:46:43;;;;;;;3.03;1.10;;;21.60;49.00;;;;;;5038835;28;20065;-51
2022/10/03 11:49:25;;;;;;;2.40;0.77;;;21.60;48.90;;;;;;5021443;28;20139;-54
2022/10/03 11:52:24;;;;;;;4.30;1.30;;;21.60;48.90;;;;;;5038895;28;20421;-53
2022/10/03 11:55:05;;;;;;;0.77;0.50;;;21.60;48.80;;;;;;5039990;28;20028;-50
2022/10/03 11:57:35;;;;;;;1.85;0.75;;;21.60;48.80;;;;;;5035259;28;20171;-54
2022/10/03 12:00:05;;;;;;;2.08;0.85;;;21.60;48.80;;;;;;5037544;28;20029;-50
2022/10/03 12:03:02;;;;;;;2.78;0.85;;;21.60;48.80;;;;;;5047912;28;20035;-47
2022/10/03 12:05:49;;;;;;;2.25;0.90;;;21.70;48.80;;;;;;5039417;28;20400;-52
2022/10/03 12:11:17;;;;;;;1.92;0.60;;;21.70;48.50;;;;;;5035770;28;20057;-51
2022/10/03 12:14:08;;;;;;;1.60;0.60;;;21.70;48.50;;;;;;5042857;28;20040;-55
2022/10/03 12:17:01;;;;;;;3.00;1.00;;;21.70;48.50;;;;;;5040405;28;20451;-52
2022/10/03 12:19:50;;;;;;;1.65;0.70;;;21.70;48.60;;;;;;5041099;28;20104;-53
2022/10/03 12:22:19;;;;;;;1.67;0.70;;;21.70;48.60;;;;;;5035921;28;20426;-56
2022/10/03 12:24:48;;;;;;;1.80;0.70;;;21.70;48.50;;;;;;5039951;28;20037;-49
2022/10/03 12:27:19;;;;;;;3.33;0.55;;;21.70;48.50;;;;;;5044349;28;20029;-53
2022/10/03 12:29:57;;;;;;;3.83;0.82;;;21.70;48.40;;;;;;5039798;28;20551;-51
2022/10/03 12:32:43;;;;;;;2.42;0.80;;;21.70;48.20;;;;;;5040248;28;20364;-50
2022/10/03 12:35:37;;;;;;;2.33;0.80;;;21.70;48.00;;;;;;5048471;28;20040;-53
2022/10/03 12:38:21;;;;;;;1.42;0.70;;;21.70;47.90;;;;;;5037725;28;20421;-50
2022/10/03 12:41:01;;;;;;;4.30;0.82;;;21.70;47.80;;;;;;5055534;28;20059;-54
2022/10/03 12:43:47;;;;;;;1.98;0.47;;;21.70;47.70;;;;;;5039011;28;20025;-48
2022/10/03 12:46:21;;;;;;;2.08;0.70;;;21.70;47.60;;;;;;5020141;28;20044;-51
2022/10/03 12:49:28;;;;;;;1.67;0.80;;;21.70;47.50;;;;;;5036841;28;20045;-54
2022/10/03 12:52:01;;;;;;;1.73;0.55;;;21.70;47.40;;;;;;5015823;28;20046;-53
2022/10/03 12:54:44;;;;;;;1.35;0.50;;;21.70;47.30;;;;;;5046923;28;20056;-50
2022/10/03 12:57:36;;;;;;;1.80;0.60;;;21.70;47.20;;;;;;5046354;28;20049;-51
2022/10/03 13:00:16;;;;;;;2.78;1.00;;;21.70;47.10;;;;;;5039483;28;20028;-53
2022/10/03 13:03:06;;;;;;;1.85;0.50;;;21.70;47.00;;;;;;5039479;28;20033;-52
2022/10/03 13:05:59;;;;;;;2.38;0.68;;;21.70;46.90;;;;;;5029683;28;20120;-51
2022/10/03 13:08:34;;;;;;;2.85;0.60;;;21.80;46.70;;;;;;5036370;28;20037;-50
2022/10/03 13:11:27;;;;;;;0.98;0.43;;;21.70;46.60;;;;;;5033378;28;20568;-49
2022/10/03 13:14:14;;;;;;;2.30;0.85;;;21.80;46.70;;;;;;5032001;28;20536;-50
2022/10/03 13:16:58;;;;;;;1.00;0.50;;;21.80;46.70;;;;;;5040972;28;20104;-49
2022/10/03 13:19:41;;;;;;;1.98;0.70;;;21.80;46.70;;;;;;5038719;28;20022;-49
2022/10/03 13:22:46;;;;;;;1.60;0.60;;;21.80;46.70;;;;;;5034174;28;20034;-51
2022/10/03 13:25:32;;;;;;;2.50;0.73;;;21.80;46.70;;;;;;5033408;28;20037;-51
2022/10/03 13:28:01;;;;;;;1.55;0.60;;;21.80;46.70;;;;;;5033806;28;20056;-54
2022/10/03 13:30:40;;;;;;;1.92;0.73;;;21.80;46.70;;;;;;5035388;28;20142;-54
2022/10/03 13:33:36;;;;;;;2.50;0.80;;;21.80;46.70;;;;;;5032604;28;20034;-52
2022/10/03 13:36:32;;;;;;;2.58;0.90;;;21.80;47.20;;;;;;5033658;28;20380;-59
2022/10/03 13:39:18;;;;;;;2.95;0.75;;;21.80;47.60;;;;;;5027518;28;20044;-56
2022/10/03 13:42:09;;;;;;;1.73;0.70;;;21.90;48.10;;;;;;5031074;28;20036;-53
2022/10/03 13:44:49;;;;;;;2.30;1.20;;;21.90;48.40;;;;;;5033937;28;20029;-52
2022/10/03 13:47:41;;;;;;;3.40;2.00;;;21.90;48.50;;;;;;5033837;28;20042;-53
2022/10/03 13:50:15;;;;;;;4.72;2.25;;;21.90;48.60;;;;;;5033010;28;20457;-50
2022/10/03 13:52:54;;;;;;;6.22;3.22;;;22.00;48.60;;;;;;5033811;28;20026;-52
2022/10/03 13:55:49;;;;;;;5.35;3.13;;;22.00;48.70;;;;;;5033834;28;20031;-54
2022/10/03 13:58:17;;;;;;;6.32;2.85;;;22.00;48.60;;;;;;5034034;28;20109;-51
2022/10/03 14:01:20;;;;;;;5.53;2.72;;;22.00;48.50;;;;;;5032683;28;20137;-54
2022/10/03 14:04:30;;;;;;;4.13;2.35;;;22.00;48.40;;;;;;5031915;28;20045;-54
2022/10/03 14:07:34;;;;;;;5.40;2.80;;;22.00;48.30;;;;;;5036095;28;20069;-51
2022/10/03 14:10:29;;;;;;;4.68;2.85;;;22.00;48.60;;;;;;5033038;28;20063;-52
2022/10/03 14:13:18;;;;;;;5.25;2.80;;;22.00;48.90;;;;;;5031995;28;20045;-48
2022/10/03 14:16:09;;;;;;;3.08;2.30;;;22.00;48.80;;;;;;5032883;28;20025;-53
2022/10/03 14:18:59;;;;;;;5.53;2.85;;;22.00;48.80;;;;;;5031730;28;20022;-52
2022/10/03 14:22:03;;;;;;;6.10;2.58;;;22.00;48.60;;;;;;5027653;28;20033;-55
2022/10/03 14:24:54;;;;;;;2.58;1.73;;;22.00;48.40;;;;;;5016231;28;20116;-54
2022/10/03 14:27:44;;;;;;;6.05;1.80;;;22.00;48.30;;;;;;5041278;28;20057;-56
2022/10/03 14:30:19;;;;;;;3.50;1.50;;;22.00;48.20;;;;;;5040247;28;20037;-56
2022/10/03 14:32:52;;;;;;;3.35;1.42;;;22.00;48.00;;;;;;5046237;28;20180;-52
2022/10/03 14:35:36;;;;;;;4.63;1.42;;;22.10;48.00;;;;;;5033379;28;20029;-48
2022/10/03 14:38:23;;;;;;;3.00;1.40;;;22.10;47.80;;;;;;5033312;28;21678;-50
2022/10/03 14:40:54;;;;;;;3.58;1.27;;;22.00;47.60;;;;;;5032537;28;20443;-51
2022/10/03 14:43:36;;;;;;;3.40;1.17;;;22.00;48.10;;;;;;5032767;28;20029;-53
2022/10/03 14:46:05;;;;;;;3.38;1.45;;;22.00;47.40;;;;;;5032631;28;20044;-50
2022/10/03 14:48:40;;;;;;;3.50;1.45;;;22.10;47.40;;;;;;5031975;28;20041;-51
2022/10/03 14:51:33;;;;;;;4.10;1.98;;;22.00;47.20;;;;;;5031536;28;20037;-51